WXM80 ListenWXM80 Stop

You find our weather info also at:

UK Metoffice

WeatherCloud

Weather Underground

Northeastern Weather Network

AWEKAS

Citizen Weather Observer Program (CWOP)

HAMweather, WeatherForYou, PWS Weather


Weather Underground History page Text

Daily Summary for December 25, 2017 Units:  Metric    English   Both
« Previous Day
Next Day »
Daily Weekly Monthly Yearly Custom
  High: Low: Average:
Temperature: -17.8 °C -1.6 °C 1.9 °C
Dew Point: -17.8 °C -10.4 °C -3.2 °C
Humidity: Humidity % 46 % 71 %
Wind Speed: 0 km/h 1.6 km/h 14.5 km/h
Wind Gust: 0 km/h - -
Wind:- - SSW
Pressure: 0 hPa 1001.2 hPa -
Precipitation: 2.79 mm    
Historical Graphs
 
 
Tabular Data for December 25, 2017
Time Temperature Dew Point Pressure Wind Wind Speed Wind Gust Humidity Rainfall Rate (Hourly)
-17.8 °C -17.8 °C 0 hPa Calm     Humidity % 0 mm
00:02 3.2 °C 2.3 °C 1010.4 hPa East 18.7 km/h 20.4 km/h 94 % 0 mm
00:06 3.3 °C 2.4 °C 1010.4 hPa East 18.7 km/h 24.1 km/h 94 % 0 mm
00:07 3.3 °C 2.4 °C 1010.4 hPa East 17.2 km/h 25.9 km/h 94 % 0 mm
00:12 3.2 °C 2.3 °C 1010.4 hPa East 16.3 km/h 24.1 km/h 94 % 0 mm
00:18 3.2 °C 2.3 °C 1010 hPa ENE 22 km/h 29.6 km/h 94 % 0 mm
00:20 3.2 °C 2.3 °C 1010 hPa NE 15 km/h 24.1 km/h 94 % 0 mm
00:25 3.2 °C 2.4 °C 1009.7 hPa ENE 17.4 km/h 22.2 km/h 95 % 0 mm
00:28 3.2 °C 2.4 °C 1009.7 hPa ENE 24.3 km/h 38.9 km/h 95 % 0 mm
00:33 3.1 °C 2.2 °C 1009.4 hPa ENE 18.5 km/h 27.4 km/h 94 % 0 mm
00:35 3.1 °C 2.2 °C 1009.4 hPa ENE 21.4 km/h 27.8 km/h 94 % 0 mm
00:36 3.1 °C 2.3 °C 1009.4 hPa ENE 17.7 km/h 27.8 km/h 95 % 0 mm
00:41 3.1 °C 2.3 °C 1009 hPa East 18.2 km/h 22.5 km/h 95 % 0 mm
00:46 3.1 °C 2.3 °C 1009 hPa East 18.7 km/h 27.8 km/h 95 % 0 mm
00:51 3.1 °C 2.3 °C 1008.7 hPa East 16.6 km/h 27.8 km/h 95 % 0 mm
00:57 3.1 °C 2.4 °C 1008.7 hPa ENE 17.4 km/h 25.7 km/h 95 % 0 mm
00:59 3.2 °C 2.5 °C 1008.7 hPa NE 20 km/h 25.9 km/h 95 % 0 mm
01:04 3.2 °C 2.5 °C 1008.4 hPa ENE 19.3 km/h 25.9 km/h 95 % 0 mm
01:07 3.2 °C 2.5 °C 1008.4 hPa ENE 18.2 km/h 27.8 km/h 95 % 0 mm
01:12 3.3 °C 2.6 °C 1008 hPa ENE 15.9 km/h 25.9 km/h 95 % 0 mm
01:17 3.4 °C 2.8 °C 1008 hPa ENE 16.6 km/h 22.2 km/h 96 % 0 mm
01:19 3.4 °C 2.9 °C 1008 hPa ENE 16.7 km/h 27.8 km/h 96 % 0 mm
01:21 3.4 °C 2.9 °C 1007.7 hPa East 19.2 km/h 25.9 km/h 96 % 0 mm
01:26 3.6 °C 3.1 °C 1007.7 hPa ENE 17.4 km/h 27.8 km/h 96 % 0 mm
01:29 3.7 °C 3.1 °C 1007.3 hPa ENE 15.6 km/h 25.9 km/h 96 % 0 mm
01:30 3.7 °C 3.1 °C 1007.3 hPa East 19.2 km/h 22.5 km/h 96 % 0 mm
01:35 3.7 °C 3.2 °C 1007.3 hPa ENE 19.3 km/h 27.4 km/h 96 % 0 mm
01:38 3.8 °C 3.3 °C 1007 hPa ENE 24.5 km/h 37 km/h 96 % 0 mm
01:39 3.8 °C 3.2 °C 1007 hPa East 17.1 km/h 37 km/h 96 % 0 mm
01:44 3.9 °C 3.3 °C 1007 hPa East 15.8 km/h 20.9 km/h 96 % 0 mm
01:45 3.9 °C 3.4 °C 1007 hPa ENE 20 km/h 25.9 km/h 96 % 0 mm
01:50 4 °C 3.4 °C 1007 hPa East 17.1 km/h 20.4 km/h 96 % 0 mm
01:52 4 °C 3.4 °C 1007 hPa ENE 16.7 km/h 22.2 km/h 96 % 0 mm
01:56 4 °C 3.4 °C 1006.7 hPa East 14.5 km/h 14.8 km/h 96 % 0 mm
02:01 4 °C 3.4 °C 1006.7 hPa East 15.9 km/h 18.5 km/h 96 % 0 mm
02:06 4 °C 3.4 °C 1006.7 hPa East 15 km/h 20.4 km/h 96 % 0 mm
02:07 4 °C 3.4 °C 1006.7 hPa East 16.6 km/h 22.5 km/h 96 % 0 mm
02:12 4 °C 3.4 °C 1006.7 hPa ENE 15.9 km/h 18.5 km/h 96 % 0 mm
02:17 3.9 °C 3.3 °C 1006.3 hPa ENE 16.6 km/h 24.1 km/h 96 % 0 mm
02:19 3.9 °C 3.3 °C 1006.3 hPa ENE 18.7 km/h 25.7 km/h 96 % 0 mm
02:20 3.8 °C 3.3 °C 1006.3 hPa East 17.2 km/h 25.9 km/h 96 % 0 mm
02:24 3.8 °C 3.2 °C 1006 hPa ENE 16.6 km/h 27.8 km/h 96 % 0 mm
02:29 3.7 °C 3.2 °C 1005.6 hPa East 18.7 km/h 20.9 km/h 96 % 0 mm
02:34 3.7 °C 3.1 °C 1005.6 hPa ENE 18.2 km/h 25.9 km/h 96 % 0 mm
02:36 3.7 °C 3.1 °C 1005.3 hPa East 21.6 km/h 27.8 km/h 96 % 0 mm
02:41 3.7 °C 3.1 °C 1005 hPa East 16.9 km/h 22.2 km/h 96 % 0 mm
02:43 3.7 °C 3.1 °C 1005 hPa East 16.9 km/h 27.8 km/h 96 % 0 mm
02:48 3.7 °C 3.2 °C 1005.6 hPa ENE 11.3 km/h 18.5 km/h 96 % 0 mm
02:49 3.7 °C 3.2 °C 1005.6 hPa East 9.3 km/h 18.5 km/h 96 % 0 mm
02:54 3.7 °C 3.1 °C 1005.6 hPa ENE 2.3 km/h 6.4 km/h 96 % 0 mm
02:59 3.7 °C 3.1 °C 1005.3 hPa ENE 11.7 km/h 16.7 km/h 96 % 0 mm
03:00 3.6 °C 3.1 °C 1005.3 hPa East 10.8 km/h 16.7 km/h 96 % 0 mm
03:05 3.6 °C 3.1 °C 1005 hPa East 17.4 km/h 24.1 km/h 96 % 0 mm
03:06 3.6 °C 3.1 °C 1005 hPa ENE 15.9 km/h 22.2 km/h 96 % 0 mm
03:11 3.7 °C 3.1 °C 1005 hPa East 14.6 km/h 24.1 km/h 96 % 0 mm
03:16 3.7 °C 3.1 °C 1005 hPa East 13.4 km/h 20.4 km/h 96 % 0 mm
03:17 3.7 °C 3.1 °C 1005 hPa ENE 17.2 km/h 20.4 km/h 96 % 0 mm
03:20 3.7 °C 3.1 °C 1004.6 hPa ENE 17.5 km/h 22.2 km/h 96 % 0 mm
03:25 3.7 °C 3.1 °C 1004.3 hPa East 14.5 km/h 20.4 km/h 96 % 0 mm
03:30 3.7 °C 3.1 °C 1004.3 hPa East 13.8 km/h 16.7 km/h 96 % 0.25 mm
03:36 3.7 °C 3.1 °C 1003.9 hPa ENE 16.1 km/h 22.5 km/h 96 % 0 mm
03:41 3.7 °C 3.1 °C 1003.9 hPa ENE 16.1 km/h 22.5 km/h 96 % 0 mm
03:46 3.7 °C 3.1 °C 1003.9 hPa ENE 12.6 km/h 20.4 km/h 96 % 0.25 mm
03:51 3.7 °C 3.2 °C 1003.6 hPa East 16.9 km/h 27.4 km/h 96 % 0.25 mm
03:54 3.7 °C 3.1 °C 1003.6 hPa ENE 19.2 km/h 27.8 km/h 96 % 0.25 mm
03:59 3.7 °C 3.1 °C 1003.9 hPa ENE 9.5 km/h 13 km/h 96 % 0.25 mm
04:03 3.6 °C 3.1 °C 1004.3 hPa NE 6.4 km/h 13 km/h 96 % 0.25 mm
04:08 3.6 °C 3 °C 1003.9 hPa ENE 14.8 km/h 20.4 km/h 96 % 0.25 mm
04:13 3.5 °C 2.9 °C 1003.6 hPa ENE 18.3 km/h 24.1 km/h 96 % 0.25 mm
04:15 3.5 °C 2.9 °C 1003.3 hPa East 19.2 km/h 22.2 km/h 96 % 0.25 mm
04:20 3.4 °C 2.8 °C 1002.9 hPa ENE 18.7 km/h 25.9 km/h 96 % 0.51 mm
04:22 3.4 °C 2.8 °C 1002.9 hPa ENE 18.5 km/h 25.9 km/h 96 % 0.51 mm
04:27 3.4 °C 2.8 °C 1002.9 hPa East 13.7 km/h 18.5 km/h 96 % 0.25 mm
04:28 3.3 °C 2.8 °C 1002.9 hPa East 11.4 km/h 18.5 km/h 96 % 0.25 mm
04:33 3.4 °C 2.8 °C 1002.9 hPa ENE 6 km/h 14.8 km/h 96 % 0.51 mm
04:36 3.4 °C 2.8 °C 1002.9 hPa ENE 6.8 km/h 12.9 km/h 96 % 0.51 mm
04:41 3.4 °C 2.9 °C 1002.9 hPa NE 13.2 km/h 16.7 km/h 96 % 0.51 mm
04:42 3.4 °C 2.9 °C 1002.9 hPa NE 17.4 km/h 20.4 km/h 96 % 0.51 mm
04:43 3.4 °C 2.9 °C 1002.6 hPa ENE 16.4 km/h 20.4 km/h 96 % 0.51 mm
04:49 3.4 °C 2.9 °C 1002.6 hPa ENE 14.3 km/h 18.5 km/h 96 % 0.51 mm
04:54 3.4 °C 2.9 °C 1002.3 hPa ENE 15.3 km/h 24.1 km/h 96 % 0.51 mm
04:55 3.4 °C 2.9 °C 1002.3 hPa East 15 km/h 20.9 km/h 96 % 0.51 mm
05:00 3.4 °C 2.9 °C 1002.3 hPa ENE 15.4 km/h 24.1 km/h 96 % 0.51 mm
05:05 3.5 °C 3.1 °C 1001.9 hPa ENE 16.3 km/h 22.5 km/h 97 % 0.51 mm
05:10 3.5 °C 2.9 °C 1001.9 hPa East 9.2 km/h 18.5 km/h 96 % 0.51 mm
05:14 3.5 °C 3.1 °C 1002.3 hPa ENE 5.8 km/h 13 km/h 97 % 0.51 mm
05:19 3.5 °C 3.1 °C 1002.3 hPa ENE 6.8 km/h 13 km/h 97 % 0.25 mm
05:24 3.5 °C 2.9 °C 1001.9 hPa ENE 12.4 km/h 18.5 km/h 96 % 0.25 mm
05:29 3.5 °C 2.9 °C 1001.6 hPa ENE 17.9 km/h 20.4 km/h 96 % 0.25 mm
05:31 3.5 °C 2.9 °C 1001.2 hPa NE 14.2 km/h 18.5 km/h 96 % 0 mm
05:32 3.5 °C 2.9 °C 1001.2 hPa ENE 14.3 km/h 18.5 km/h 96 % 0 mm
05:37 3.4 °C 2.9 °C 1001.2 hPa ENE 14.3 km/h 18.5 km/h 96 % 0 mm
05:40 3.4 °C 2.9 °C 1001.2 hPa ENE 8.9 km/h 16.7 km/h 96 % 0 mm
05:45 3.4 °C 3 °C 1001.2 hPa NNE 6 km/h 9.3 km/h 97 % 0 mm
05:46 3.4 °C 3 °C 1001.2 hPa North 5.8 km/h 9.3 km/h 97 % 0 mm
05:51 3.4 °C 3 °C 1001.6 hPa NNE 7.4 km/h 9.7 km/h 97 % 0 mm
05:53 3.4 °C 3 °C 1001.6 hPa NNE 5.8 km/h 11.1 km/h 97 % 0 mm
05:57 3.4 °C 2.8 °C 1001.2 hPa East 9.7 km/h 14.8 km/h 96 % 0 mm
05:59 3.3 °C 2.8 °C 1001.6 hPa East 2.6 km/h 9.3 km/h 96 % 0 mm
06:04 3.3 °C 2.8 °C 1003.3 hPa WNW 8.7 km/h 16.7 km/h 96 % 0 mm
06:09 3.3 °C 2.7 °C 1002.9 hPa WNW 3.7 km/h 9.3 km/h 96 % 0.51 mm
06:13 3.2 °C 2.7 °C 1003.3 hPa West 9.3 km/h 19.3 km/h 96 % 0.76 mm
06:19 3.1 °C 2.5 °C 1003.3 hPa NW 4.8 km/h 11.1 km/h 96 % 1.02 mm
06:24 2.9 °C 2.3 °C 1003.3 hPa West 12.2 km/h 18.5 km/h 96 % 1.02 mm
06:29 2.7 °C 2.2 °C 1003.6 hPa WNW 6 km/h 11.1 km/h 96 % 1.02 mm
06:34 2.5 °C 1.9 °C 1003.6 hPa WNW 6.1 km/h 12.9 km/h 96 % 1.27 mm
06:38 2.4 °C 1.9 °C 1003.6 hPa West 9 km/h 13 km/h 96 % 1.27 mm
06:43 2.2 °C 1.4 °C 1003.6 hPa WNW 9 km/h 14.8 km/h 95 % 1.52 mm
06:45 2.1 °C 1.4 °C 1003.6 hPa West 9.8 km/h 17.7 km/h 95 % 1.52 mm
06:47 2.1 °C 1.3 °C 1003.6 hPa NW 4.5 km/h 5.6 km/h 95 % 1.52 mm
06:52 1.9 °C 1.2 °C 1003.6 hPa NW 5.8 km/h 18.5 km/h 95 % 1.78 mm
06:53 1.9 °C 1.2 °C 1003.3 hPa West 7.4 km/h 11.1 km/h 95 % 1.78 mm
06:57 1.8 °C 1.1 °C 1003.6 hPa NNW 3.5 km/h 6.4 km/h 95 % 1.78 mm
07:01 1.8 °C 1.1 °C 1003.6 hPa SW 11.6 km/h 16.1 km/h 95 % 1.78 mm
07:06 1.7 °C 1 °C 1003.6 hPa West 9.2 km/h 13 km/h 95 % 1.52 mm
07:11 1.7 °C 1.2 °C 1003.9 hPa West 9.3 km/h 16.7 km/h 96 % 1.27 mm
07:12 1.7 °C 1.1 °C 1003.9 hPa West 10.5 km/h 16.7 km/h 96 % 1.27 mm
07:17 1.7 °C 1.1 °C 1003.9 hPa West 6.1 km/h 16.7 km/h 96 % 0.76 mm
07:18 1.7 °C 1.1 °C 1003.9 hPa West 7.4 km/h 13 km/h 96 % 0.76 mm
07:19 1.7 °C 1.1 °C 1003.9 hPa SW 8.2 km/h 18.5 km/h 96 % 0.76 mm
07:24 1.7 °C 1.2 °C 1003.9 hPa WNW 7.9 km/h 14.8 km/h 96 % 1.02 mm
07:27 1.7 °C 1.2 °C 1003.9 hPa SSW 7.6 km/h 18.5 km/h 96 % 1.02 mm
07:32 1.7 °C 1.2 °C 1003.9 hPa WNW 9 km/h 22.2 km/h 96 % 0.76 mm
07:33 1.7 °C 1.2 °C 1003.9 hPa WNW 7.1 km/h 22.2 km/h 96 % 0.76 mm
07:38 1.8 °C 1.2 °C 1004.3 hPa West 8.9 km/h 11.1 km/h 96 % 0.76 mm
07:43 1.8 °C 1.3 °C 1003.9 hPa WNW 10.1 km/h 18.5 km/h 96 % 0.51 mm
07:46 1.9 °C 1.3 °C 1004.3 hPa West 10.8 km/h 22.2 km/h 96 % 0.51 mm
07:51 1.9 °C 1.4 °C 1004.3 hPa West 8.4 km/h 19.3 km/h 96 % 0.51 mm
07:54 1.9 °C 1.4 °C 1004.3 hPa West 1.6 km/h 5.6 km/h 96 % 0.25 mm
07:59 2.1 °C 1.5 °C 1004.3 hPa SW 6 km/h 14.8 km/h 96 % 0.25 mm
08:04 2.1 °C 1.5 °C 1004.3 hPa WNW 11.9 km/h 22.2 km/h 96 % 0.25 mm
08:10 2.1 °C 1.6 °C 1004.3 hPa SW 12.7 km/h 22.5 km/h 96 % 0.25 mm
08:15 2.1 °C 1.6 °C 1004.3 hPa WSW 11.4 km/h 16.7 km/h 96 % 0.25 mm
08:20 2.2 °C 1.6 °C 1004.3 hPa South 10 km/h 33.8 km/h 96 % 0.25 mm
08:21 2.2 °C 1.6 °C 1004.3 hPa WSW 11.3 km/h 33.8 km/h 96 % 0 mm
08:26 2.2 °C 1.7 °C 1004.3 hPa SW 14.3 km/h 29.6 km/h 96 % 0 mm
08:27 2.2 °C 1.6 °C 1004.3 hPa West 18.8 km/h 35.2 km/h 96 % 0 mm
08:32 2.2 °C 1.7 °C 1004.6 hPa NW 11.1 km/h 22.5 km/h 96 % 0 mm
08:33 2.2 °C 1.7 °C 1004.6 hPa SSW 12.7 km/h 25.9 km/h 96 % 0 mm
08:37 2.3 °C 1.7 °C 1004.3 hPa WNW 10.8 km/h 35.2 km/h 96 % 0 mm
08:42 2.4 °C 1.8 °C 1004.6 hPa WSW 11.7 km/h 29.6 km/h 96 % 0 mm
08:43 2.4 °C 1.8 °C 1004.6 hPa West 14 km/h 31.5 km/h 96 % 0 mm
08:48 2.4 °C 1.9 °C 1005 hPa SSW 14.3 km/h 24.1 km/h 96 % 0 mm
08:53 2.6 °C 1.8 °C 1004.6 hPa West 20.9 km/h 31.5 km/h 95 % 0 mm
08:56 2.6 °C 1.9 °C 1005 hPa SW 21.7 km/h 29.6 km/h 95 % 0 mm
08:59 2.7 °C 1.8 °C 1005.3 hPa WSW 17.2 km/h 25.9 km/h 94 % 0 mm
09:04 2.8 °C 1.9 °C 1005.3 hPa WSW 16.3 km/h 27.8 km/h 94 % 0 mm
09:05 2.8 °C 1.8 °C 1005.3 hPa SW 14.5 km/h 27.8 km/h 93 % 0 mm
09:09 2.8 °C 1.8 °C 1005.6 hPa WSW 18.7 km/h 37 km/h 93 % 0 mm
09:12 2.9 °C 1.7 °C 1005.6 hPa WSW 21.2 km/h 37 km/h 92 % 0 mm
09:17 2.9 °C 1.6 °C 1005.6 hPa SW 26.9 km/h 37 km/h 91 % 0 mm
09:22 3 °C 1.2 °C 1006 hPa West 19.3 km/h 44.4 km/h 88 % 0 mm
09:24 3 °C 1.2 °C 1006.3 hPa WSW 24.8 km/h 38.9 km/h 88 % 0 mm
09:29 3.1 °C 0.8 °C 1006.3 hPa WSW 19.2 km/h 31.5 km/h 85 % 0 mm
09:31 3.1 °C 0.7 °C 1006.3 hPa WSW 22.2 km/h 38.9 km/h 84 % 0 mm
09:36 3.2 °C 0.4 °C 1006.7 hPa WSW 18.2 km/h 40.7 km/h 82 % 0 mm
09:38 3.2 °C 0.4 °C 1006.3 hPa SW 25.7 km/h 41.8 km/h 82 % 0 mm
09:39 3.2 °C 0.3 °C 1006.3 hPa SW 17.4 km/h 42.6 km/h 81 % 0 mm
09:43 3.2 °C 0.1 °C 1006.7 hPa SW 21.7 km/h 46.3 km/h 80 % 0 mm
09:48 3.3 °C -0.2 °C 1006.7 hPa WSW 14.6 km/h 31.5 km/h 78 % 0 mm
09:52 3.3 °C 0.1 °C 1007 hPa WNW 11.4 km/h 22.2 km/h 79 % 0 mm
09:54 3.4 °C -0.3 °C 1006.7 hPa SSW 19.2 km/h 46.3 km/h 77 % 0 mm
09:59 3.4 °C -0.6 °C 1007 hPa West 28.6 km/h 48.1 km/h 75 % 0 mm
10:04 3.5 °C -0.5 °C 1007 hPa West 13 km/h 27.4 km/h 75 % 0 mm
10:05 3.5 °C -0.5 °C 1007.3 hPa NW 15.9 km/h 27.8 km/h 75 % 0 mm
10:10 3.6 °C -0.4 °C 1007.3 hPa NW 18.5 km/h 29.6 km/h 75 % 0 mm
10:11 3.6 °C -0.8 °C 1007 hPa WSW 20.1 km/h 40.7 km/h 73 % 0 mm
10:12 3.6 °C -0.8 °C 1007.3 hPa NW 22.9 km/h 37 km/h 73 % 0 mm
10:18 3.7 °C -0.7 °C 1007.3 hPa WNW 8.2 km/h 27.8 km/h 73 % 0 mm
10:20 3.7 °C -0.9 °C 1007.3 hPa WSW 22.2 km/h 33.3 km/h 72 % 0 mm
10:24 3.8 °C -0.8 °C 1007.3 hPa WSW 15 km/h 29.6 km/h 72 % 0 mm
10:29 3.8 °C -1.2 °C 1007.7 hPa West 22.9 km/h 40.7 km/h 70 % 0 mm
10:34 3.8 °C -1.3 °C 1007.7 hPa WSW 24.5 km/h 48.1 km/h 69 % 0 mm
10:36 3.8 °C -1.4 °C 1007.7 hPa WSW 25.6 km/h 33.3 km/h 69 % 0 mm
10:42 3.7 °C -1.8 °C 1008 hPa WSW 27 km/h 59.2 km/h 67 % 0 mm
10:43 3.7 °C -1.9 °C 1008 hPa West 16.3 km/h 35.2 km/h 67 % 0 mm
10:47 3.6 °C -1.7 °C 1008 hPa WSW 21.1 km/h 48.1 km/h 68 % 0 mm
10:50 3.6 °C -1.7 °C 1008 hPa WSW 14.8 km/h 31.5 km/h 68 % 0 mm
10:52 3.7 °C -1.7 °C 1007.7 hPa WNW 23.2 km/h 42.6 km/h 68 % 0 mm
10:55 3.7 °C -1.7 °C 1008 hPa WSW 21.6 km/h 35.2 km/h 68 % 0 mm
10:58 3.7 °C -1.7 °C 1008 hPa West 17.7 km/h 33.3 km/h 68 % 0 mm
11:03 3.5 °C -2.1 °C 1008.4 hPa WNW 18.3 km/h 48.1 km/h 67 % 0 mm
11:04 3.4 °C -2.3 °C 1008.4 hPa WSW 14.2 km/h 37 km/h 66 % 0 mm
11:09 3.2 °C -2.7 °C 1008.4 hPa WSW 20.4 km/h 31.5 km/h 65 % 0 mm
11:12 3.2 °C -2.8 °C 1008.4 hPa WSW 21.2 km/h 38.9 km/h 65 % 0 mm
11:17 2.9 °C -3.2 °C 1008.4 hPa WSW 11.6 km/h 31.5 km/h 64 % 0 mm
11:19 2.9 °C -3.4 °C 1008.4 hPa West 9.7 km/h 14.8 km/h 63 % 0 mm
11:25 2.8 °C -3.8 °C 1008.7 hPa West 16.4 km/h 27.8 km/h 62 % 0 mm
11:26 2.8 °C -3.6 °C 1008.7 hPa WNW 13 km/h 33.3 km/h 63 % 0 mm
11:28 2.8 °C -3.6 °C 1008.7 hPa West 22.4 km/h 42.6 km/h 63 % 0 mm
11:33 2.8 °C -3.9 °C 1008.7 hPa NNW 21.2 km/h 38.9 km/h 61 % 0 mm
11:36 2.9 °C -3.9 °C 1008.7 hPa West 16.1 km/h 38.6 km/h 61 % 0 mm
11:41 2.9 °C -4.3 °C 1008.7 hPa SW 22.2 km/h 51.8 km/h 59 % 0 mm
11:43 3 °C -4 °C 1008.7 hPa SW 16.1 km/h 38.9 km/h 60 % 0 mm
11:48 3.1 °C -3.7 °C 1009 hPa West 15.3 km/h 27.8 km/h 61 % 0 mm
11:50 3.1 °C -3.9 °C 1008.7 hPa West 12.9 km/h 31.5 km/h 60 % 0 mm
11:55 3.1 °C -3.9 °C 1008.7 hPa NW 17.2 km/h 29.6 km/h 60 % 0 mm
11:57 3.2 °C -3.8 °C 1008.7 hPa WNW 14.2 km/h 27.8 km/h 60 % 0 mm
12:03 3.2 °C -4.7 °C 1008.7 hPa NW 21.1 km/h 31.5 km/h 56 % 0 mm
12:04 3.2 °C -4.7 °C 1008.7 hPa WSW 14.5 km/h 22.5 km/h 56 % 0 mm
12:09 3.3 °C -4 °C 1009 hPa WSW 12.6 km/h 29 km/h 59 % 0 mm
12:14 3.4 °C -3.6 °C 1009 hPa WNW 10.9 km/h 20.9 km/h 60 % 0 mm
12:15 3.4 °C -3.4 °C 1009 hPa West 13.2 km/h 18.5 km/h 61 % 0 mm
12:17 3.5 °C -3.6 °C 1009 hPa WSW 17.4 km/h 42.6 km/h 60 % 0 mm
12:21 3.6 °C -3.7 °C 1009 hPa West 16.1 km/h 32.2 km/h 59 % 0 mm
12:26 3.4 °C -4.3 °C 1009.4 hPa West 14.5 km/h 32.2 km/h 57 % 0 mm
12:27 3.4 °C -4.3 °C 1009.4 hPa West 17.7 km/h 31.5 km/h 57 % 0 mm
12:32 3.3 °C -4.2 °C 1009.4 hPa WNW 14.5 km/h 20.9 km/h 58 % 0 mm
12:35 3.3 °C -4 °C 1009.4 hPa WSW 22.4 km/h 42.6 km/h 59 % 0 mm
12:40 3.2 °C -3.4 °C 1009.4 hPa WNW 14.2 km/h 25.9 km/h 62 % 0 mm
12:41 3.2 °C -3.4 °C 1009.7 hPa West 14.5 km/h 37 km/h 62 % 0 mm
12:46 3.1 °C -4.2 °C 1009.7 hPa West 16.1 km/h 37 km/h 59 % 0 mm
12:50 3 °C -4.7 °C 1009.7 hPa West 17.4 km/h 29.6 km/h 57 % 0 mm
12:54 3 °C -4.7 °C 1009.7 hPa West 19.8 km/h 35.2 km/h 57 % 0 mm
12:59 2.8 °C -5.3 °C 1010 hPa West 14.8 km/h 29.6 km/h 55 % 0 mm
13:01 2.8 °C -4.9 °C 1010 hPa WNW 9 km/h 18.5 km/h 57 % 0 mm
13:05 2.7 °C -5.2 °C 1010 hPa SW 23.3 km/h 42.6 km/h 56 % 0 mm
13:06 2.7 °C -5.2 °C 1010 hPa West 18.2 km/h 31.5 km/h 56 % 0 mm
13:10 2.6 °C -5.6 °C 1010 hPa NW 19.2 km/h 42.6 km/h 55 % 0 mm
13:12 2.6 °C -5.6 °C 1010 hPa WSW 17.7 km/h 31.5 km/h 55 % 0 mm
13:15 2.7 °C -5.2 °C 1010 hPa WSW 20.8 km/h 46.3 km/h 56 % 0 mm
13:20 2.7 °C -5.5 °C 1010 hPa SW 18.7 km/h 37 km/h 55 % 0 mm
13:26 2.6 °C -5.3 °C 1010.4 hPa West 16.1 km/h 32.2 km/h 56 % 0 mm
13:27 2.6 °C -5.3 °C 1010.4 hPa WNW 12.6 km/h 22.2 km/h 56 % 0 mm
13:32 2.6 °C -6.1 °C 1010.7 hPa NW 17.7 km/h 33.3 km/h 53 % 0 mm
13:36 2.6 °C -5.8 °C 1010.4 hPa WSW 22.2 km/h 38.9 km/h 54 % 0 mm
13:41 2.6 °C -6.3 °C 1010.7 hPa WSW 19.3 km/h 31.5 km/h 52 % 0 mm
13:44 2.5 °C -6.6 °C 1010.7 hPa WSW 20.1 km/h 42.6 km/h 51 % 0 mm
13:47 2.5 °C -6.6 °C 1010.7 hPa SW 16.1 km/h 29.6 km/h 51 % 0 mm
13:51 2.5 °C -6.1 °C 1010.7 hPa WSW 7.7 km/h 20.4 km/h 53 % 0 mm
13:53 2.5 °C -6.1 °C 1010.7 hPa West 16.1 km/h 29.6 km/h 53 % 0 mm
13:58 2.6 °C -6.1 °C 1011.1 hPa West 18.5 km/h 37 km/h 53 % 0 mm
14:00 2.6 °C -6.1 °C 1011.1 hPa West 7.6 km/h 22.2 km/h 53 % 0 mm
14:04 2.5 °C -6.4 °C 1011.1 hPa WSW 14.6 km/h 29.6 km/h 52 % 0 mm
14:06 2.4 °C -6.4 °C 1011.4 hPa NW 20.4 km/h 37 km/h 52 % 0 mm
14:11 2.4 °C -6.2 °C 1011.4 hPa West 14.6 km/h 24.1 km/h 53 % 0 mm
14:17 2.3 °C -6.1 °C 1011.4 hPa WSW 18.8 km/h 24.1 km/h 54 % 0 mm
14:19 2.3 °C -6.1 °C 1011.4 hPa WSW 20.3 km/h 35.2 km/h 54 % 0 mm
14:21 2.3 °C -6.3 °C 1011.4 hPa WSW 21.6 km/h 35.2 km/h 53 % 0 mm
14:25 2.3 °C -6.3 °C 1011.7 hPa WSW 17.7 km/h 20.9 km/h 53 % 0 mm
14:27 2.3 °C -6.1 °C 1011.7 hPa WSW 7.9 km/h 25.9 km/h 54 % 0 mm
14:32 2.3 °C -6.6 °C 1011.7 hPa WNW 16.9 km/h 20.4 km/h 52 % 0 mm
14:37 2.3 °C -6.8 °C 1011.7 hPa WNW 17.9 km/h 37 km/h 51 % 0 mm
14:40 2.3 °C -6.6 °C 1012.1 hPa SW 14.5 km/h 19.3 km/h 52 % 0 mm
14:45 2.3 °C -7.1 °C 1012.1 hPa West 15.4 km/h 31.5 km/h 50 % 0 mm
14:49 2.3 °C -7.1 °C 1012.1 hPa WSW 16.9 km/h 33.3 km/h 50 % 0 mm
14:54 2.3 °C -7.3 °C 1012.4 hPa SW 22.7 km/h 33.3 km/h 49 % 0 mm
14:58 2.2 °C -7.2 °C 1012.4 hPa WNW 11.7 km/h 25.7 km/h 50 % 0 mm
15:00 2.2 °C -6.9 °C 1012.4 hPa SW 8.5 km/h 25.9 km/h 51 % 0 mm
15:03 2.2 °C -6.9 °C 1012.8 hPa SW 17.4 km/h 27.8 km/h 51 % 0 mm
15:08 2.1 °C -7.5 °C 1012.4 hPa West 11.3 km/h 25.9 km/h 49 % 0 mm
15:09 2.1 °C -7.5 °C 1012.4 hPa West 12.4 km/h 25.9 km/h 49 % 0 mm
15:14 2.1 °C -7.3 °C 1012.4 hPa WNW 8.2 km/h 18.5 km/h 50 % 0 mm
15:19 2 °C -7.6 °C 1012.8 hPa WNW 17.9 km/h 27.4 km/h 49 % 0 mm
15:24 2 °C -7.6 °C 1012.8 hPa WNW 14.3 km/h 20.4 km/h 49 % 0 mm
15:25 2 °C -7.6 °C 1012.8 hPa West 15 km/h 20.4 km/h 49 % 0 mm
15:30 1.9 °C -7.7 °C 1013.1 hPa West 14.5 km/h 27.8 km/h 49 % 0 mm
15:35 1.9 °C -7.9 °C 1013.1 hPa WNW 15.3 km/h 29.6 km/h 48 % 0 mm
15:39 1.9 °C -7.7 °C 1013.4 hPa WNW 11.3 km/h 22.2 km/h 49 % 0 mm
15:43 1.9 °C -7.4 °C 1013.4 hPa WNW 16.7 km/h 25.9 km/h 50 % 0 mm
15:45 1.8 °C -7.8 °C 1013.4 hPa West 18.2 km/h 25.9 km/h 49 % 0 mm
15:50 1.8 °C -7.8 °C 1013.8 hPa West 14.6 km/h 31.5 km/h 49 % 0 mm
15:55 1.7 °C -8.1 °C 1013.4 hPa WSW 9.5 km/h 20.4 km/h 48 % 0 mm
16:00 1.7 °C -7.9 °C 1013.8 hPa WSW 16.7 km/h 31.5 km/h 49 % 0 mm
16:05 1.7 °C -8.2 °C 1013.8 hPa SW 9.5 km/h 24.1 km/h 48 % 0 mm
16:06 1.7 °C -8.2 °C 1013.8 hPa West 9.7 km/h 33.8 km/h 48 % 0 mm
16:11 1.6 °C -8.2 °C 1014.1 hPa West 11.3 km/h 25.7 km/h 48 % 0 mm
16:12 1.6 °C -8.2 °C 1014.1 hPa WNW 11.1 km/h 16.1 km/h 48 % 0 mm
16:17 1.6 °C -8 °C 1014.1 hPa WSW 12.7 km/h 18.5 km/h 49 % 0 mm
16:19 1.6 °C -8.3 °C 1014.1 hPa WNW 7.9 km/h 31.5 km/h 48 % 0 mm
16:24 1.6 °C -8.8 °C 1014.4 hPa WSW 7.1 km/h 16.7 km/h 46 % 0 mm
16:28 1.5 °C -8.1 °C 1014.4 hPa SW 8 km/h 22.2 km/h 49 % 0 mm
16:33 1.5 °C -7.3 °C 1014.8 hPa SW 14.8 km/h 22.2 km/h 52 % 0 mm
16:34 1.4 °C -7.3 °C 1014.8 hPa WSW 8.9 km/h 22.2 km/h 52 % 0 mm
16:39 1.4 °C -7.3 °C 1014.8 hPa WSW 10.6 km/h 18.5 km/h 52 % 0 mm
16:44 1.4 °C -7.2 °C 1015.1 hPa West 14.5 km/h 24.1 km/h 53 % 0 mm
16:49 1.3 °C -7.7 °C 1015.1 hPa WSW 10.9 km/h 22.2 km/h 51 % 0 mm
16:53 1.3 °C -7.3 °C 1015.5 hPa WSW 8 km/h 9.3 km/h 53 % 0 mm
16:54 1.3 °C -7.3 °C 1015.5 hPa West 8.2 km/h 18.5 km/h 53 % 0 mm
16:59 1.2 °C -7.3 °C 1015.5 hPa West 8.9 km/h 16.7 km/h 53 % 0 mm
17:00 1.3 °C -7.3 °C 1015.5 hPa WSW 13.4 km/h 25.7 km/h 53 % 0 mm
17:04 1.2 °C -8.1 °C 1015.5 hPa WSW 15.6 km/h 24.1 km/h 50 % 0 mm
17:07 1.3 °C -8 °C 1015.5 hPa WSW 16.3 km/h 25.7 km/h 50 % 0 mm
17:12 1.3 °C -9.1 °C 1015.5 hPa WNW 6.8 km/h 27.8 km/h 46 % 0 mm
17:16 1.3 °C -8.8 °C 1015.5 hPa SW 8.9 km/h 19.3 km/h 47 % 0 mm
17:18 1.3 °C -8.8 °C 1015.8 hPa WSW 5.6 km/h 18.5 km/h 47 % 0 mm
17:23 1.3 °C -8.6 °C 1015.8 hPa West 10.9 km/h 20.4 km/h 48 % 0 mm
17:26 1.2 °C -8.6 °C 1015.8 hPa West 9.7 km/h 20.9 km/h 48 % 0 mm
17:31 1.2 °C -8.3 °C 1016.1 hPa West 15 km/h 20.4 km/h 49 % 0 mm
17:33 1.2 °C -8.3 °C 1016.1 hPa SW 8.9 km/h 13 km/h 49 % 0 mm
17:38 1.2 °C -7.6 °C 1016.1 hPa SW 5.3 km/h 19.3 km/h 52 % 0 mm
17:42 1.2 °C -7.6 °C 1016.5 hPa WSW 11.6 km/h 27.8 km/h 52 % 0 mm
17:47 1.2 °C -7.3 °C 1016.5 hPa WSW 9.2 km/h 22.2 km/h 53 % 0 mm
17:52 1.2 °C -7.1 °C 1016.8 hPa West 14 km/h 32.2 km/h 54 % 0 mm
17:57 1.1 °C -7.4 °C 1016.8 hPa SSW 16.9 km/h 25.9 km/h 53 % 0 mm
18:02 1.1 °C -7.4 °C 1017.2 hPa West 16.6 km/h 22.2 km/h 53 % 0 mm
18:07 1 °C -7.8 °C 1017.5 hPa WSW 14.8 km/h 33.3 km/h 52 % 0 mm
18:08 1 °C -7.5 °C 1017.5 hPa SW 16.3 km/h 24.1 km/h 53 % 0 mm
18:13 0.9 °C -7.3 °C 1017.5 hPa WSW 9.7 km/h 16.1 km/h 54 % 0 mm
18:19 0.9 °C -7.4 °C 1017.5 hPa SW 11.1 km/h 22.2 km/h 54 % 0 mm
18:24 0.8 °C -7.7 °C 1017.8 hPa WSW 20 km/h 31.5 km/h 53 % 0 mm
18:25 0.8 °C -7.7 °C 1017.8 hPa WSW 16.4 km/h 31.5 km/h 53 % 0 mm
18:26 0.7 °C -7.8 °C 1017.8 hPa WSW 11.9 km/h 27.8 km/h 53 % 0 mm
18:31 0.7 °C -7.8 °C 1017.8 hPa WSW 12.9 km/h 43.5 km/h 53 % 0 mm
18:36 0.7 °C -7.8 °C 1018.2 hPa WSW 4.8 km/h 22.5 km/h 53 % 0 mm
18:38 0.6 °C -7.9 °C 1018.5 hPa WSW 8.7 km/h 19.3 km/h 53 % 0 mm
18:43 0.6 °C -8.2 °C 1018.2 hPa SW 15.9 km/h 22.2 km/h 52 % 0 mm
18:45 0.5 °C -8 °C 1018.5 hPa SW 15.3 km/h 20.4 km/h 53 % 0 mm
18:50 0.4 °C -8.1 °C 1018.5 hPa SW 16.4 km/h 29.6 km/h 53 % 0 mm
18:51 0.4 °C -8.1 °C 1018.5 hPa SSW 16.4 km/h 35.4 km/h 53 % 0 mm
18:54 0.4 °C -8.3 °C 1018.5 hPa WNW 19.2 km/h 38.6 km/h 52 % 0 mm
18:57 0.4 °C -8.1 °C 1018.5 hPa WSW 18.5 km/h 31.5 km/h 53 % 0 mm
19:02 0.4 °C -8.6 °C 1018.8 hPa SW 17.1 km/h 27.8 km/h 51 % 0 mm
19:07 0.3 °C -8.4 °C 1018.8 hPa SW 10.5 km/h 19.3 km/h 52 % 0 mm
19:10 0.3 °C -8.4 °C 1018.8 hPa NW 11.4 km/h 27.8 km/h 52 % 0 mm
19:11 0.3 °C -8.4 °C 1018.8 hPa SW 6.3 km/h 16.1 km/h 52 % 0 mm
19:16 0.3 °C -8.2 °C 1018.8 hPa SW 11.3 km/h 32.2 km/h 53 % 0 mm
19:21 0.2 °C -8.2 °C 1018.8 hPa SW 11.3 km/h 33.8 km/h 53 % 0 mm
19:22 0.2 °C -8.2 °C 1018.8 hPa West 9.7 km/h 18.5 km/h 53 % 0 mm
19:27 0.2 °C -8.3 °C 1019.2 hPa SW 10.5 km/h 24.1 km/h 53 % 0 mm
19:28 0.2 °C -8.3 °C 1019.2 hPa WSW 11.9 km/h 24.1 km/h 53 % 0 mm
19:33 0.2 °C -8.3 °C 1019.2 hPa WSW 16.9 km/h 31.5 km/h 53 % 0 mm
19:38 0.1 °C -8.3 °C 1019.2 hPa West 11.7 km/h 22.2 km/h 53 % 0 mm
19:43 0.1 °C -8.4 °C 1019.5 hPa SSW 13.4 km/h 22.2 km/h 53 % 0 mm
19:46 0.1 °C -8.4 °C 1019.5 hPa WSW 13.2 km/h 37 km/h 53 % 0 mm
19:51 0 °C -8.2 °C 1019.5 hPa West 14.2 km/h 25.9 km/h 54 % 0 mm
19:52 0 °C -8.2 °C 1019.5 hPa SSW 14 km/h 25.9 km/h 54 % 0 mm
19:57 -0.1 °C -8.3 °C 1019.5 hPa SW 15.3 km/h 25.9 km/h 54 % 0 mm
19:59 -0.1 °C -8.3 °C 1019.5 hPa WNW 20.1 km/h 25.7 km/h 54 % 0 mm
20:00 -0.1 °C -8.3 °C 1019.9 hPa WSW 15.4 km/h 31.5 km/h 54 % 0 mm
20:05 -0.1 °C -8.3 °C 1019.9 hPa WSW 18.2 km/h 31.5 km/h 54 % 0 mm
20:07 -0.1 °C -8.3 °C 1019.9 hPa West 12.4 km/h 29.6 km/h 54 % 0 mm
20:09 -0.1 °C -8.1 °C 1019.9 hPa WSW 28.6 km/h 42.6 km/h 55 % 0 mm
20:12 -0.2 °C -8.4 °C 1019.9 hPa WSW 13.7 km/h 22.2 km/h 54 % 0 mm
20:18 -0.2 °C -8.7 °C 1020.2 hPa WSW 11.6 km/h 27.8 km/h 53 % 0 mm
20:21 -0.2 °C -8.2 °C 1020.2 hPa West 17.2 km/h 32.2 km/h 55 % 0 mm
20:26 -0.3 °C -8.5 °C 1020.2 hPa WSW 19.3 km/h 37 km/h 54 % 0 mm
20:31 -0.3 °C -8.3 °C 1020.5 hPa WSW 19.3 km/h 35.4 km/h 55 % 0 mm
20:34 -0.3 °C -8.5 °C 1020.5 hPa WSW 9.8 km/h 31.5 km/h 54 % 0 mm
20:39 -0.4 °C -8.6 °C 1020.5 hPa SW 22 km/h 32.2 km/h 54 % 0 mm
20:43 -0.4 °C -8.9 °C 1020.9 hPa West 11.3 km/h 31.5 km/h 53 % 0 mm
20:48 -0.5 °C -8.7 °C 1020.9 hPa WSW 23 km/h 33.3 km/h 54 % 0 mm
20:53 -0.6 °C -8.5 °C 1020.9 hPa WSW 9.7 km/h 24.1 km/h 55 % 0 mm
20:55 -0.6 °C -8.5 °C 1020.9 hPa West 12.6 km/h 22.2 km/h 55 % 0 mm
21:01 -0.7 °C -9.1 °C 1021.2 hPa SW 9.5 km/h 18.5 km/h 53 % 0 mm
21:06 -0.7 °C -8.8 °C 1021.2 hPa SW 17.4 km/h 29 km/h 54 % 0 mm
21:10 -0.7 °C -8.7 °C 1021.2 hPa SW 12.1 km/h 25.9 km/h 55 % 0 mm
21:13 -0.8 °C -8.7 °C 1021.2 hPa West 14.2 km/h 27.8 km/h 55 % 0 mm
21:18 -0.8 °C -9.5 °C 1021.2 hPa West 13.8 km/h 24.1 km/h 52 % 0 mm
21:22 -0.8 °C -9.2 °C 1021.2 hPa WSW 13.4 km/h 27.4 km/h 53 % 0 mm
21:26 -0.9 °C -8.8 °C 1021.2 hPa West 7.4 km/h 18.5 km/h 55 % 0 mm
21:27 -0.9 °C -8.8 °C 1021.2 hPa SW 7.6 km/h 16.7 km/h 55 % 0 mm
21:32 -0.9 °C -8.9 °C 1021.6 hPa WSW 10 km/h 33.8 km/h 55 % 0 mm
21:34 -0.9 °C -8.9 °C 1021.6 hPa West 16.7 km/h 33.3 km/h 55 % 0 mm
21:35 -0.9 °C -8.9 °C 1021.9 hPa WSW 16.6 km/h 29 km/h 55 % 0 mm
21:40 -1 °C -8.9 °C 1021.6 hPa SW 13.4 km/h 25.9 km/h 55 % 0 mm
21:42 -1 °C -8.9 °C 1021.6 hPa West 16.1 km/h 25.9 km/h 55 % 0 mm
21:47 -1 °C -8.9 °C 1021.6 hPa West 17.1 km/h 29.6 km/h 55 % 0 mm
21:51 -1.1 °C -8.9 °C 1021.6 hPa WNW 11.7 km/h 24.1 km/h 55 % 0 mm
21:56 -1.1 °C -9.2 °C 1021.6 hPa SW 9.7 km/h 29.6 km/h 54 % 0 mm
21:58 -1.1 °C -9.2 °C 1021.9 hPa West 19.3 km/h 27.8 km/h 54 % 0 mm
22:03 -1.1 °C -9.3 °C 1021.9 hPa WNW 13 km/h 25.9 km/h 54 % 0 mm
22:05 -1.1 °C -9.3 °C 1021.9 hPa West 16.9 km/h 25.9 km/h 54 % 0 mm
22:06 -1.1 °C -9.5 °C 1021.9 hPa West 13.7 km/h 20.4 km/h 53 % 0 mm
22:11 -1.2 °C -9.6 °C 1022.2 hPa West 9.3 km/h 18.5 km/h 53 % 0 mm
22:16 -1.2 °C -9.6 °C 1022.2 hPa West 14.5 km/h 18.5 km/h 53 % 0 mm
22:18 -1.2 °C -9.6 °C 1022.2 hPa West 18.2 km/h 31.5 km/h 53 % 0 mm
22:23 -1.2 °C -9.8 °C 1022.2 hPa SW 15.1 km/h 31.5 km/h 52 % 0 mm
22:24 -1.2 °C -9.8 °C 1022.2 hPa West 17.2 km/h 25.9 km/h 52 % 0 mm
22:29 -1.2 °C -10.1 °C 1022.2 hPa West 22.5 km/h 31.5 km/h 51 % 0 mm
22:30 -1.2 °C -10.1 °C 1022.2 hPa West 17.5 km/h 31.5 km/h 51 % 0 mm
22:33 -1.2 °C -9.8 °C 1022.2 hPa WNW 18.3 km/h 33.8 km/h 52 % 0 mm
22:36 -1.3 °C -10.1 °C 1022.2 hPa West 12.2 km/h 31.5 km/h 51 % 0 mm
22:39 -1.3 °C -9.9 °C 1022.2 hPa West 15.3 km/h 24.1 km/h 52 % 0 mm
22:44 -1.3 °C -9.4 °C 1022.2 hPa West 17.5 km/h 37 km/h 54 % 0 mm
22:49 -1.3 °C -9.9 °C 1022.6 hPa WSW 10.3 km/h 19.3 km/h 52 % 0 mm
22:54 -1.3 °C -10.2 °C 1022.6 hPa WNW 15.4 km/h 20.4 km/h 51 % 0 mm
22:55 -1.3 °C -10.2 °C 1022.6 hPa West 13.7 km/h 25.9 km/h 51 % 0 mm
23:00 -1.3 °C -9.9 °C 1022.2 hPa WNW 16.9 km/h 27.8 km/h 52 % 0 mm
23:01 -1.3 °C -9.9 °C 1022.6 hPa WSW 9.7 km/h 27.8 km/h 52 % 0 mm
23:06 -1.3 °C -9.9 °C 1022.6 hPa WSW 12.2 km/h 25.9 km/h 52 % 0 mm
23:07 -1.3 °C -9.9 °C 1022.6 hPa West 12.4 km/h 22.2 km/h 52 % 0 mm
23:11 -1.3 °C -9.9 °C 1022.6 hPa West 14.3 km/h 31.5 km/h 52 % 0 mm
23:16 -1.4 °C -10 °C 1022.6 hPa WSW 12.2 km/h 22.2 km/h 52 % 0 mm
23:21 -1.4 °C -10 °C 1022.6 hPa WNW 10.8 km/h 20.4 km/h 52 % 0 mm
23:22 -1.4 °C -10 °C 1022.6 hPa WNW 8.4 km/h 25.7 km/h 52 % 0 mm
23:29 -1.4 °C -10.1 °C 1022.6 hPa WSW 13.2 km/h 31.5 km/h 52 % 0 mm
23:34 -1.4 °C -10.1 °C 1022.6 hPa WSW 17.9 km/h 35.2 km/h 52 % 0 mm
23:35 -1.4 °C -10.3 °C 1022.6 hPa West 11.4 km/h 25.9 km/h 51 % 0 mm
23:40 -1.5 °C -10.3 °C 1022.6 hPa WNW 13.7 km/h 20.4 km/h 51 % 0 mm
23:41 -1.5 °C -10.1 °C 1022.6 hPa NW 12.6 km/h 22.2 km/h 52 % 0 mm
23:46 -1.6 °C -9.9 °C 1022.6 hPa WNW 7.1 km/h 20.9 km/h 53 % 0 mm
23:47 -1.6 °C -9.9 °C 1022.6 hPa WSW 11.6 km/h 17.7 km/h 53 % 0 mm
23:52 -1.6 °C -9.7 °C 1022.6 hPa NW 12.2 km/h 18.5 km/h 54 % 0 mm
23:58 -1.6 °C -10.4 °C 1022.6 hPa West 16.7 km/h 27.8 km/h 51 % 0 mm
Crab Meadow Weather
Compliments of Weather Underground - 3.75 mb

Script developed by  Jim McMurry - jmcmurry@mwt.net Adapted for the template by  Wim van der Kuil - Leuven-Template.eu

Extremes: The longest period without measurable rainfall in the United States was 767 days at Bagdad, California.